UAL411 KSAN-KLAX
Flight info
| Callsign | UAL411 |
|---|---|
| Flight time | 0h 31m |
| Altitude | 10000 |
| Route | CWARD2 SLI |
| Aircraft | A20N/M-SDE2E3FGHIRWXY/LB1 |
Departure
| Time | 2026-04-26 01:30 |
|---|---|
| Airport | San Diego International Airport (KSAN) |
Arrival
| Time | 2026-04-26 02:01 |
|---|---|
| Airport | Los Angeles International Airport (KLAX) |
| Time | Latitude | Longitude | Altitude | Speed | Heading |
|---|---|---|---|---|---|
| 2026-04-26 01:03 | 32.73374 | -117.19818 | 26 ft | 0 kts | 207° |
| 2026-04-26 01:18 | 32.73374 | -117.19817 | 24 ft | 1 kts | 207° |
| 2026-04-26 01:18 | 32.73381 | -117.19813 | 29 ft | 1 kts | 207° |
| 2026-04-26 01:18 | 32.73388 | -117.19809 | 29 ft | 1 kts | 201° |
| 2026-04-26 01:18 | 32.73395 | -117.19806 | 26 ft | 1 kts | 185° |
| 2026-04-26 01:19 | 32.73407 | -117.19805 | 28 ft | 2 kts | 176° |
| 2026-04-26 01:19 | 32.73422 | -117.19807 | 27 ft | 2 kts | 166° |
| 2026-04-26 01:19 | 32.73437 | -117.19813 | 29 ft | 2 kts | 151° |
| 2026-04-26 01:19 | 32.73451 | -117.19824 | 27 ft | 3 kts | 133° |
| 2026-04-26 01:20 | 32.73463 | -117.19843 | 27 ft | 3 kts | 110° |
| 2026-04-26 01:20 | 32.73465 | -117.19852 | 27 ft | 0 kts | 101° |
| 2026-04-26 01:21 | 32.73465 | -117.19851 | 27 ft | 0 kts | 101° |
| 2026-04-26 01:21 | 32.73459 | -117.19819 | 27 ft | 9 kts | 103° |
| 2026-04-26 01:22 | 32.73428 | -117.19695 | 27 ft | 22 kts | 104° |
| 2026-04-26 01:22 | 32.73378 | -117.19487 | 27 ft | 29 kts | 106° |
| 2026-04-26 01:22 | 32.73325 | -117.19260 | 25 ft | 29 kts | 108° |
| 2026-04-26 01:22 | 32.73300 | -117.19163 | 26 ft | 12 kts | 105° |
| 2026-04-26 01:23 | 32.73271 | -117.19042 | 27 ft | 19 kts | 106° |
| 2026-04-26 01:23 | 32.73223 | -117.18849 | 27 ft | 28 kts | 106° |
| 2026-04-26 01:23 | 32.73171 | -117.18633 | 28 ft | 23 kts | 108° |
| 2026-04-26 01:23 | 32.73121 | -117.18432 | 26 ft | 27 kts | 107° |
| 2026-04-26 01:24 | 32.73065 | -117.18206 | 25 ft | 30 kts | 103° |
| 2026-04-26 01:24 | 32.73007 | -117.17957 | 23 ft | 32 kts | 105° |
| 2026-04-26 01:24 | 32.72964 | -117.17778 | 23 ft | 11 kts | 110° |
| 2026-04-26 01:24 | 32.72956 | -117.17673 | 22 ft | 13 kts | 74° |
| 2026-04-26 01:25 | 32.72957 | -117.17667 | 23 ft | 0 kts | 74° |
| 2026-04-26 01:28 | 32.72959 | -117.17662 | 24 ft | 1 kts | 74° |
| 2026-04-26 01:28 | 32.72976 | -117.17623 | 26 ft | 12 kts | 45° |
| 2026-04-26 01:29 | 32.73051 | -117.17700 | 24 ft | 21 kts | 283° |
| 2026-04-26 01:29 | 32.73142 | -117.18105 | 22 ft | 85 kts | 286° |
| 2026-04-26 01:29 | 32.73350 | -117.18991 | 28 ft | 136 kts | 283° |
| 2026-04-26 01:29 | 32.73642 | -117.20193 | 334 ft | 163 kts | 285° |
| 2026-04-26 01:30 | 32.73998 | -117.21521 | 1146 ft | 175 kts | 286° |
| 2026-04-26 01:30 | 32.74468 | -117.22958 | 1744 ft | 200 kts | 298° |
| 2026-04-26 01:30 | 32.75340 | -117.24351 | 2398 ft | 220 kts | 308° |
| 2026-04-26 01:30 | 32.76359 | -117.25767 | 2788 ft | 233 kts | 307° |
| 2026-04-26 01:31 | 32.77404 | -117.27350 | 3133 ft | 249 kts | 304° |
| 2026-04-26 01:31 | 32.78419 | -117.29060 | 3659 ft | 256 kts | 302° |
| 2026-04-26 01:31 | 32.79397 | -117.30817 | 4406 ft | 257 kts | 301° |
| 2026-04-26 01:31 | 32.80451 | -117.32575 | 5419 ft | 261 kts | 306° |
| 2026-04-26 01:32 | 32.81556 | -117.34269 | 6677 ft | 259 kts | 305° |
| 2026-04-26 01:32 | 32.82671 | -117.36003 | 7642 ft | 268 kts | 304° |
| 2026-04-26 01:32 | 32.83810 | -117.37779 | 8494 ft | 276 kts | 304° |
| 2026-04-26 01:32 | 32.84959 | -117.39567 | 8602 ft | 273 kts | 303° |
| 2026-04-26 01:33 | 32.86128 | -117.41383 | 8715 ft | 274 kts | 304° |
| 2026-04-26 01:33 | 32.87268 | -117.43155 | 8829 ft | 274 kts | 303° |
| 2026-04-26 01:33 | 32.88425 | -117.44952 | 8939 ft | 274 kts | 303° |
| 2026-04-26 01:33 | 32.89584 | -117.46753 | 9059 ft | 275 kts | 303° |
| 2026-04-26 01:34 | 32.90746 | -117.48562 | 9175 ft | 274 kts | 303° |
| 2026-04-26 01:34 | 32.91909 | -117.50371 | 9290 ft | 275 kts | 303° |
| 2026-04-26 01:34 | 32.93073 | -117.52182 | 9409 ft | 276 kts | 303° |
| 2026-04-26 01:34 | 32.94238 | -117.53996 | 9534 ft | 276 kts | 303° |
| 2026-04-26 01:35 | 32.95406 | -117.55815 | 9649 ft | 277 kts | 303° |
| 2026-04-26 01:35 | 32.96573 | -117.57633 | 9856 ft | 278 kts | 303° |
| 2026-04-26 01:35 | 32.97754 | -117.59475 | 9964 ft | 280 kts | 303° |
| 2026-04-26 01:35 | 32.98984 | -117.61408 | 9964 ft | 312 kts | 303° |
| 2026-04-26 01:36 | 33.00329 | -117.63524 | 9966 ft | 323 kts | 303° |
| 2026-04-26 01:36 | 33.01684 | -117.65639 | 9952 ft | 321 kts | 304° |
| 2026-04-26 01:36 | 33.03014 | -117.67707 | 9952 ft | 305 kts | 304° |
| 2026-04-26 01:37 | 33.05448 | -117.71491 | 9952 ft | 273 kts | 303° |
| 2026-04-26 01:37 | 33.06720 | -117.73282 | 9954 ft | 303 kts | 311° |
| 2026-04-26 01:37 | 33.08385 | -117.75032 | 9953 ft | 327 kts | 316° |
| 2026-04-26 01:37 | 33.10109 | -117.76769 | 9946 ft | 318 kts | 316° |
| 2026-04-26 01:38 | 33.11756 | -117.78422 | 9942 ft | 302 kts | 316° |
| 2026-04-26 01:38 | 33.13322 | -117.80001 | 9951 ft | 288 kts | 315° |
| 2026-04-26 01:38 | 33.14845 | -117.81548 | 9956 ft | 292 kts | 315° |
| 2026-04-26 01:38 | 33.16478 | -117.83227 | 9959 ft | 324 kts | 315° |
| 2026-04-26 01:39 | 33.18218 | -117.84929 | 9939 ft | 321 kts | 321° |
| 2026-04-26 01:39 | 33.20140 | -117.86176 | 9946 ft | 309 kts | 333° |
| 2026-04-26 01:39 | 33.22194 | -117.86897 | 9944 ft | 304 kts | 344° |
| 2026-04-26 01:39 | 33.24218 | -117.87373 | 9943 ft | 291 kts | 343° |
| 2026-04-26 01:40 | 33.26222 | -117.87870 | 9948 ft | 297 kts | 343° |
| 2026-04-26 01:40 | 33.28236 | -117.88378 | 9956 ft | 295 kts | 343° |
| 2026-04-26 01:40 | 33.30346 | -117.88916 | 9948 ft | 327 kts | 343° |
| 2026-04-26 01:40 | 33.32545 | -117.89472 | 9945 ft | 326 kts | 344° |
| 2026-04-26 01:41 | 33.34755 | -117.90014 | 9945 ft | 308 kts | 344° |
| 2026-04-26 01:41 | 33.36796 | -117.90512 | 9946 ft | 291 kts | 343° |
| 2026-04-26 01:41 | 33.38793 | -117.91043 | 9952 ft | 307 kts | 339° |
| 2026-04-26 01:41 | 33.40945 | -117.91843 | 9926 ft | 338 kts | 338° |
| 2026-04-26 01:42 | 33.43232 | -117.92687 | 9909 ft | 347 kts | 339° |
| 2026-04-26 01:42 | 33.45530 | -117.93520 | 9868 ft | 342 kts | 339° |
| 2026-04-26 01:42 | 33.47773 | -117.94327 | 9770 ft | 331 kts | 339° |
| 2026-04-26 01:42 | 33.49936 | -117.95106 | 9657 ft | 318 kts | 339° |
| 2026-04-26 01:43 | 33.52021 | -117.95859 | 9507 ft | 306 kts | 339° |
| 2026-04-26 01:43 | 33.54046 | -117.96596 | 9092 ft | 304 kts | 339° |
| 2026-04-26 01:43 | 33.56052 | -117.97332 | 8514 ft | 306 kts | 339° |
| 2026-04-26 01:43 | 33.58114 | -117.98088 | 7995 ft | 306 kts | 339° |
| 2026-04-26 01:44 | 33.60151 | -117.98834 | 7492 ft | 305 kts | 339° |
| 2026-04-26 01:44 | 33.62159 | -117.99566 | 7245 ft | 296 kts | 340° |
| 2026-04-26 01:44 | 33.64083 | -118.00265 | 7146 ft | 282 kts | 339° |
| 2026-04-26 01:44 | 33.65915 | -118.00929 | 7043 ft | 269 kts | 339° |
| 2026-04-26 01:45 | 33.67660 | -118.01563 | 7002 ft | 254 kts | 339° |
| 2026-04-26 01:45 | 33.69298 | -118.02159 | 7000 ft | 239 kts | 339° |
| 2026-04-26 01:45 | 33.70856 | -118.02729 | 7005 ft | 235 kts | 338° |
| 2026-04-26 01:45 | 33.72430 | -118.03310 | 7001 ft | 235 kts | 339° |
| 2026-04-26 01:46 | 33.73969 | -118.03877 | 7002 ft | 234 kts | 339° |
| 2026-04-26 01:46 | 33.75528 | -118.04474 | 6968 ft | 234 kts | 335° |
| 2026-04-26 01:46 | 33.77019 | -118.05241 | 6968 ft | 232 kts | 331° |
| 2026-04-26 01:46 | 33.78493 | -118.06038 | 6968 ft | 233 kts | 331° |
| 2026-04-26 01:47 | 33.79964 | -118.06839 | 6968 ft | 231 kts | 331° |
| 2026-04-26 01:47 | 33.80952 | -118.07378 | 6966 ft | 229 kts | 331° |
| 2026-04-26 01:47 | 33.82403 | -118.08178 | 6969 ft | 230 kts | 331° |
| 2026-04-26 01:47 | 33.83857 | -118.08978 | 6969 ft | 230 kts | 331° |
| 2026-04-26 01:48 | 33.85323 | -118.09780 | 6967 ft | 232 kts | 331° |
| 2026-04-26 01:48 | 33.86782 | -118.10575 | 6844 ft | 229 kts | 331° |
| 2026-04-26 01:48 | 33.88222 | -118.11360 | 6557 ft | 230 kts | 331° |
| 2026-04-26 01:48 | 33.89676 | -118.12159 | 6255 ft | 231 kts | 331° |
| 2026-04-26 01:49 | 33.91161 | -118.12988 | 5712 ft | 241 kts | 332° |
| 2026-04-26 01:49 | 33.92697 | -118.13870 | 5194 ft | 248 kts | 331° |
| 2026-04-26 01:49 | 33.94191 | -118.14940 | 4684 ft | 251 kts | 313° |
| 2026-04-26 01:49 | 33.95148 | -118.16674 | 4174 ft | 251 kts | 292° |
| 2026-04-26 01:50 | 33.95846 | -118.18596 | 3897 ft | 247 kts | 291° |
| 2026-04-26 01:50 | 33.96523 | -118.20445 | 3795 ft | 235 kts | 292° |
| 2026-04-26 01:50 | 33.97293 | -118.22141 | 3685 ft | 224 kts | 289° |
| 2026-04-26 01:50 | 33.97504 | -118.23916 | 3538 ft | 212 kts | 258° |
| 2026-04-26 01:51 | 33.96869 | -118.25473 | 3289 ft | 208 kts | 225° |
| 2026-04-26 01:51 | 33.95613 | -118.26269 | 3099 ft | 206 kts | 189° |
| 2026-04-26 01:51 | 33.94169 | -118.25999 | 3010 ft | 220 kts | 154° |
| 2026-04-26 01:51 | 33.93059 | -118.24740 | 3004 ft | 225 kts | 120° |
| 2026-04-26 01:52 | 33.92467 | -118.22982 | 3001 ft | 227 kts | 111° |
| 2026-04-26 01:52 | 33.92208 | -118.21120 | 3008 ft | 230 kts | 92° |
| 2026-04-26 01:52 | 33.92193 | -118.19179 | 2996 ft | 230 kts | 91° |
| 2026-04-26 01:52 | 33.92186 | -118.17263 | 2995 ft | 228 kts | 91° |
| 2026-04-26 01:53 | 33.92174 | -118.15342 | 2993 ft | 231 kts | 91° |
| 2026-04-26 01:53 | 33.92165 | -118.13422 | 2998 ft | 230 kts | 91° |
| 2026-04-26 01:53 | 33.92162 | -118.11513 | 2986 ft | 228 kts | 91° |
| 2026-04-26 01:53 | 33.92158 | -118.09618 | 2983 ft | 227 kts | 91° |
| 2026-04-26 01:54 | 33.92154 | -118.07722 | 2993 ft | 228 kts | 91° |
| 2026-04-26 01:54 | 33.92477 | -118.05856 | 2984 ft | 230 kts | 61° |
| 2026-04-26 01:54 | 33.93564 | -118.04483 | 2991 ft | 228 kts | 27° |
| 2026-04-26 01:54 | 33.95068 | -118.04050 | 2995 ft | 223 kts | 352° |
| 2026-04-26 01:55 | 33.96495 | -118.04678 | 2987 ft | 218 kts | 318° |
| 2026-04-26 01:55 | 33.97305 | -118.06145 | 2993 ft | 214 kts | 278° |
| 2026-04-26 01:55 | 33.97153 | -118.07886 | 2990 ft | 208 kts | 249° |
| 2026-04-26 01:55 | 33.96928 | -118.09589 | 2994 ft | 210 kts | 276° |
| 2026-04-26 01:56 | 33.97202 | -118.11338 | 2982 ft | 213 kts | 274° |
| 2026-04-26 01:56 | 33.97156 | -118.13091 | 2992 ft | 208 kts | 263° |
| 2026-04-26 01:56 | 33.96990 | -118.14830 | 2987 ft | 209 kts | 262° |
| 2026-04-26 01:56 | 33.96826 | -118.16548 | 3014 ft | 205 kts | 262° |
| 2026-04-26 01:57 | 33.96645 | -118.18281 | 2990 ft | 212 kts | 260° |
| 2026-04-26 01:57 | 33.96407 | -118.20031 | 3002 ft | 209 kts | 262° |
| 2026-04-26 01:57 | 33.96246 | -118.21784 | 3004 ft | 210 kts | 259° |
| 2026-04-26 01:57 | 33.95977 | -118.23527 | 2961 ft | 211 kts | 259° |
| 2026-04-26 01:58 | 33.95721 | -118.25222 | 2853 ft | 200 kts | 256° |
| 2026-04-26 01:58 | 33.95351 | -118.26804 | 2729 ft | 191 kts | 252° |
| 2026-04-26 01:58 | 33.95054 | -118.28267 | 2812 ft | 171 kts | 256° |
| 2026-04-26 01:58 | 33.94753 | -118.29612 | 2736 ft | 161 kts | 252° |
| 2026-04-26 01:59 | 33.94416 | -118.30921 | 2558 ft | 166 kts | 252° |
| 2026-04-26 01:59 | 33.94079 | -118.32238 | 2365 ft | 161 kts | 258° |
| 2026-04-26 01:59 | 33.93945 | -118.33537 | 1992 ft | 156 kts | 266° |
| 2026-04-26 01:59 | 33.93944 | -118.34849 | 1501 ft | 156 kts | 268° |
| 2026-04-26 02:00 | 33.93893 | -118.36158 | 953 ft | 158 kts | 264° |
| 2026-04-26 02:00 | 33.93788 | -118.37445 | 479 ft | 154 kts | 263° |
| 2026-04-26 02:00 | 33.93690 | -118.38702 | 160 ft | 145 kts | 263° |
| 2026-04-26 02:00 | 33.93586 | -118.39770 | 125 ft | 98 kts | 262° |
| 2026-04-26 02:01 | 33.93540 | -118.40222 | 124 ft | 13 kts | 263° |
| 2026-04-26 02:01 | 33.93507 | -118.40522 | 122 ft | 48 kts | 264° |
| 2026-04-26 02:01 | 33.93468 | -118.40901 | 125 ft | 43 kts | 266° |
| 2026-04-26 02:01 | 33.93431 | -118.41240 | 125 ft | 39 kts | 262° |
| 2026-04-26 02:02 | 33.93400 | -118.41556 | 125 ft | 38 kts | 263° |
| 2026-04-26 02:02 | 33.93387 | -118.41810 | 125 ft | 13 kts | 277° |
| 2026-04-26 02:02 | 33.93425 | -118.41889 | 124 ft | 0 kts | 334° |
| 2026-04-26 02:03 | 33.93432 | -118.41892 | 124 ft | 4 kts | 340° |
| 2026-04-26 02:03 | 33.93497 | -118.41904 | 123 ft | 16 kts | 353° |
| 2026-04-26 02:04 | 33.93632 | -118.41927 | 123 ft | 22 kts | 353° |